createdAt,value
2019-06-01T00:00:11.991Z,12.64
2019-06-01T00:02:40.807Z,12.62
2019-06-01T00:05:10.542Z,12.59
2019-06-01T00:07:39.283Z,12.63
2019-06-01T00:10:09.854Z,12.57
2019-06-01T00:12:39.294Z,12.52
2019-06-01T00:15:09.087Z,12.45
2019-06-01T00:17:37.837Z,12.32
2019-06-01T00:20:06.603Z,12.33
2019-06-01T00:22:35.412Z,12.17
2019-06-01T00:25:06.924Z,12.12
2019-06-01T00:27:35.667Z,11.97
2019-06-01T00:30:06.826Z,12.13
2019-06-01T00:32:35.573Z,12.10
2019-06-01T00:35:06.824Z,11.94
2019-06-01T00:37:35.722Z,11.00
2019-06-01T00:40:07.102Z,11.92
2019-06-01T00:42:36.071Z,11.65
2019-06-01T00:45:07.265Z,11.97
2019-06-01T00:47:36.018Z,11.87
2019-06-01T00:50:08.221Z,11.85
2019-06-01T00:52:36.987Z,11.80
2019-06-01T00:55:07.194Z,11.98
2019-06-01T00:57:36.098Z,11.91
2019-06-01T01:00:08.161Z,11.90
2019-06-01T01:02:36.972Z,11.95
2019-06-01T01:05:14.562Z,11.82
2019-06-01T01:07:44.529Z,11.88
2019-06-01T01:10:14.179Z,11.85
2019-06-01T01:13:00.924Z,11.85
2019-06-01T01:15:29.768Z,11.82
2019-06-01T01:17:58.511Z,11.74
2019-06-01T01:20:27.263Z,11.68
2019-06-01T01:22:56.479Z,11.72
2019-06-01T01:25:25.896Z,11.63
2019-06-01T01:27:54.864Z,11.68
2019-06-01T01:30:23.687Z,11.73
2019-06-01T01:32:53.591Z,11.74
2019-06-01T01:35:22.924Z,11.62
2019-06-01T01:37:52.012Z,11.58
2019-06-01T01:40:20.819Z,11.55
2019-06-01T01:42:50.563Z,11.64
2019-06-01T01:45:19.946Z,11.72
2019-06-01T01:47:49.425Z,11.73
2019-06-01T01:50:19.354Z,11.74
2019-06-01T01:52:48.189Z,11.76
2019-06-01T01:55:16.929Z,11.79
2019-06-01T01:57:45.811Z,11.78
2019-06-01T02:00:15.972Z,11.81
2019-06-01T02:02:46.204Z,11.80
2019-06-01T02:05:14.996Z,11.80
2019-06-01T02:07:43.752Z,11.80
2019-06-01T02:10:12.638Z,11.76
2019-06-01T02:12:41.294Z,11.75
2019-06-01T02:15:10.832Z,11.81
2019-06-01T02:17:39.714Z,11.85
2019-06-01T02:20:08.573Z,11.82
2019-06-01T02:22:37.315Z,11.85
2019-06-01T02:25:07.557Z,11.85
2019-06-01T02:27:36.314Z,11.85
2019-06-01T02:30:07.825Z,11.85
2019-06-01T02:32:36.706Z,11.88
2019-06-01T02:35:08.751Z,11.90
2019-06-01T02:37:37.497Z,11.90
2019-06-01T02:40:08.193Z,11.84
2019-06-01T02:42:36.934Z,11.92
2019-06-01T02:45:11.062Z,11.94
2019-06-01T02:47:39.954Z,11.99
2019-06-01T02:50:10.220Z,12.08
2019-06-01T02:52:39.263Z,12.17
2019-06-01T02:55:10.985Z,10.74
2019-06-01T02:57:39.730Z,12.00
2019-06-01T03:00:09.984Z,12.01
2019-06-01T03:02:39.702Z,11.96
2019-06-01T03:05:08.453Z,11.89
2019-06-01T03:07:39.852Z,11.95
2019-06-01T03:10:09.010Z,12.00
2019-06-01T03:12:40.692Z,11.97
2019-06-01T03:15:09.454Z,11.93
2019-06-01T03:17:41.132Z,11.82
2019-06-01T03:20:10.089Z,11.87
2019-06-01T03:22:40.958Z,11.89
2019-06-01T03:25:09.831Z,11.98
2019-06-01T03:27:40.166Z,11.90
2019-06-01T03:30:14.540Z,11.99
2019-06-01T03:32:41.817Z,12.08
2019-06-01T03:35:13.095Z,12.03
2019-06-01T03:37:42.066Z,12.02
2019-06-01T03:40:19.717Z,12.17
2019-06-01T03:42:41.299Z,12.22
2019-06-01T03:45:10.238Z,12.33
2019-06-01T03:47:38.992Z,12.42
2019-06-01T03:50:09.136Z,12.47
2019-06-01T03:52:38.428Z,12.63
2019-06-01T03:55:07.806Z,12.68
2019-06-01T03:57:37.354Z,12.81
2019-06-01T04:00:09.410Z,13.00
2019-06-01T04:02:38.986Z,12.96
2019-06-01T04:05:07.860Z,13.05
2019-06-01T04:07:38.907Z,13.16
2019-06-01T04:10:09.820Z,13.25
2019-06-01T04:12:39.041Z,13.35
2019-06-01T04:15:12.801Z,13.63
2019-06-01T04:17:38.974Z,13.63
2019-06-01T04:20:08.257Z,13.89
2019-06-01T04:22:37.061Z,14.05
2019-06-01T04:25:08.299Z,14.51
2019-06-01T04:27:37.175Z,15.13
2019-06-01T04:30:09.426Z,15.68
2019-06-01T04:32:49.415Z,16.41
2019-06-01T04:35:09.072Z,16.68
2019-06-01T04:37:37.917Z,16.31
2019-06-01T04:40:07.530Z,15.95
2019-06-01T04:42:36.359Z,16.31
2019-06-01T04:45:10.789Z,17.82
2019-06-01T04:47:39.652Z,18.28
2019-06-01T04:50:08.856Z,18.62
2019-06-01T04:52:37.591Z,18.54
2019-06-01T04:55:08.940Z,17.82
2019-06-01T04:57:38.013Z,17.21
2019-06-01T05:00:12.623Z,16.75
2019-06-01T05:02:38.419Z,16.05
2019-06-01T05:05:09.348Z,16.06
2019-06-01T05:07:38.481Z,16.08
2019-06-01T05:10:07.834Z,15.96
2019-06-01T05:12:38.054Z,16.66
2019-06-01T05:15:10.116Z,17.50
2019-06-01T05:17:39.008Z,18.60
2019-06-01T05:20:08.267Z,19.50
2019-06-01T05:22:37.471Z,21.11
2019-06-01T05:25:09.033Z,21.11
2019-06-01T05:27:38.461Z,21.11
2019-06-01T05:30:09.482Z,23.61
2019-06-01T05:32:38.304Z,24.40
2019-06-01T05:35:09.660Z,24.63
2019-06-01T05:37:40.426Z,24.63
2019-06-01T05:40:12.441Z,25.62
2019-06-01T05:42:41.652Z,25.93
2019-06-01T05:45:11.377Z,26.00
2019-06-01T05:47:40.200Z,26.55
2019-06-01T05:50:10.601Z,26.14
2019-06-01T05:52:39.838Z,25.62
2019-06-01T05:55:10.287Z,24.68
2019-06-01T05:57:39.690Z,24.42
2019-06-01T06:00:11.326Z,24.73
2019-06-01T06:02:40.200Z,24.95
2019-06-01T06:05:10.609Z,24.02
2019-06-01T06:07:39.808Z,23.82
2019-06-01T06:10:11.843Z,24.17
2019-06-01T06:12:40.896Z,23.66
2019-06-01T06:15:11.349Z,23.74
2019-06-01T06:17:40.499Z,23.72
2019-06-01T06:20:09.273Z,24.08
2019-06-01T06:22:41.134Z,24.25
2019-06-01T06:25:08.552Z,24.30
2019-06-01T06:27:37.290Z,24.24
2019-06-01T06:30:08.050Z,24.01
2019-06-01T06:32:36.719Z,23.74
2019-06-01T06:35:07.265Z,23.61
2019-06-01T06:37:37.625Z,23.27
2019-06-01T06:40:09.547Z,23.27
2019-06-01T06:42:38.303Z,23.06
2019-06-01T06:45:09.773Z,23.30
2019-06-01T06:47:38.524Z,23.66
2019-06-01T06:50:08.426Z,23.94
2019-06-01T06:52:37.348Z,23.82
2019-06-01T06:55:07.336Z,24.30
2019-06-01T06:57:36.075Z,23.68
2019-06-01T07:00:09.663Z,23.86
2019-06-01T07:02:38.456Z,23.94
2019-06-01T07:05:08.563Z,23.79
2019-06-01T07:07:37.318Z,23.80
2019-06-01T07:10:07.771Z,23.55
2019-06-01T07:12:36.539Z,23.72
2019-06-01T07:15:07.682Z,23.69
2019-06-01T07:17:36.434Z,23.67
2019-06-01T07:20:07.631Z,23.96
2019-06-01T07:22:36.512Z,23.88
2019-06-01T07:25:06.545Z,24.04
2019-06-01T07:27:35.292Z,24.18
2019-06-01T07:30:09.322Z,24.42
2019-06-01T07:32:38.061Z,24.90
2019-06-01T07:35:08.335Z,25.03
2019-06-01T07:37:37.093Z,24.88
2019-06-01T07:40:12.963Z,25.31
2019-06-01T07:42:38.478Z,25.08
2019-06-01T07:45:09.204Z,24.76
2019-06-01T07:47:37.926Z,25.04
2019-06-01T07:50:09.785Z,24.70
2019-06-01T07:52:38.733Z,24.39
2019-06-01T07:55:14.185Z,24.71
2019-06-01T07:57:44.236Z,24.87
2019-06-01T08:00:14.012Z,24.91
2019-06-01T08:02:42.821Z,25.10
2019-06-01T08:05:11.657Z,25.06
2019-06-01T08:07:40.435Z,24.88
2019-06-01T08:10:09.298Z,24.83
2019-06-01T08:12:38.473Z,25.35
2019-06-01T08:15:12.031Z,25.16
2019-06-01T08:17:40.780Z,25.34
2019-06-01T08:20:11.042Z,25.40
2019-06-01T08:22:41.426Z,24.96
2019-06-01T08:25:10.161Z,24.12
2019-06-01T08:27:41.538Z,24.32
2019-06-01T08:30:12.911Z,24.87
2019-06-01T08:32:42.706Z,25.11
2019-06-01T08:35:11.964Z,24.63
2019-06-01T08:37:40.857Z,24.06
2019-06-01T08:40:10.034Z,24.44
2019-06-01T08:42:42.550Z,25.59
2019-06-01T08:45:11.884Z,25.59
2019-06-01T08:47:40.841Z,25.75
2019-06-01T08:50:09.833Z,25.65
2019-06-01T08:52:40.321Z,25.61
2019-06-01T08:55:09.656Z,25.06
2019-06-01T08:57:38.422Z,25.78
2019-06-01T09:00:10.299Z,25.68
2019-06-01T09:02:39.445Z,25.83
2019-06-01T09:05:23.080Z,25.84
2019-06-01T09:07:38.868Z,25.74
2019-06-01T09:10:11.408Z,25.97
2019-06-01T09:12:40.150Z,26.30
2019-06-01T09:15:09.615Z,26.14
2019-06-01T09:17:38.443Z,26.07
2019-06-01T09:20:08.485Z,26.24
2019-06-01T09:22:37.259Z,26.66
2019-06-01T09:25:06.794Z,27.14
2019-06-01T09:27:36.102Z,27.31
2019-06-01T09:30:10.712Z,27.04
2019-06-01T09:32:39.492Z,26.85
2019-06-01T09:35:08.627Z,26.67
2019-06-01T09:37:39.220Z,26.94
2019-06-01T09:40:08.877Z,26.94
2019-06-01T09:42:52.149Z,26.94
2019-06-01T09:45:34.567Z,27.42
2019-06-01T09:48:16.224Z,27.64
2019-06-01T09:50:54.583Z,27.45
2019-06-01T09:53:23.864Z,27.70
2019-06-01T09:56:03.315Z,27.51
2019-06-01T09:58:54.193Z,27.80
2019-06-01T10:01:37.195Z,27.77
2019-06-01T10:04:21.440Z,27.54
2019-06-01T10:06:51.277Z,27.85
2019-06-01T10:09:20.025Z,27.38
2019-06-01T10:11:48.794Z,27.50
2019-06-01T10:14:17.581Z,27.60
2019-06-01T10:16:46.358Z,27.43
2019-06-01T10:19:15.421Z,27.55
2019-06-01T10:21:44.282Z,27.37
2019-06-01T10:24:13.304Z,27.69
2019-06-01T10:26:42.119Z,27.62
2019-06-01T10:29:11.837Z,27.96
2019-06-01T10:31:41.652Z,28.06
2019-06-01T10:34:11.712Z,28.27
2019-06-01T10:36:43.499Z,28.37
2019-06-01T10:39:12.261Z,28.79
2019-06-01T10:41:51.837Z,29.00
2019-06-01T10:44:21.939Z,29.31
2019-06-01T10:46:50.830Z,28.76
2019-06-01T10:49:19.928Z,28.73
2019-06-01T10:51:49.216Z,28.56
2019-06-01T10:54:19.808Z,28.62
2019-06-01T10:56:48.676Z,28.62
2019-06-01T10:59:18.336Z,28.03
2019-06-01T11:01:47.086Z,28.26
2019-06-01T11:04:15.874Z,28.16
2019-06-01T11:06:48.635Z,28.39
2019-06-01T11:09:15.950Z,28.80
2019-06-01T11:11:53.714Z,28.53
2019-06-01T11:14:31.281Z,28.45
2019-06-01T11:17:08.697Z,28.62
2019-06-01T11:19:57.814Z,28.79
2019-06-01T11:22:27.871Z,29.05
2019-06-01T11:24:56.867Z,29.04
2019-06-01T11:27:26.482Z,28.75
2019-06-01T11:29:55.701Z,28.46
2019-06-01T11:32:24.470Z,28.53
2019-06-01T11:34:53.350Z,28.63
2019-06-01T11:37:22.225Z,29.06
2019-06-01T11:39:51.036Z,28.81
2019-06-01T11:42:20.239Z,28.86
2019-06-01T11:44:49.389Z,29.27
2019-06-01T11:47:18.332Z,29.24
2019-06-01T11:50:09.955Z,29.51
2019-06-01T11:52:57.331Z,29.73
2019-06-01T11:55:48.166Z,29.29
2019-06-01T11:58:39.398Z,29.26
2019-06-01T12:01:22.793Z,29.21
2019-06-01T12:04:06.744Z,29.14
2019-06-01T12:06:37.710Z,28.84
2019-06-01T12:09:09.653Z,28.99
2019-06-01T12:11:39.808Z,29.43
2019-06-01T12:14:08.941Z,29.53
2019-06-01T12:16:38.302Z,29.55
2019-06-01T12:19:07.506Z,29.73
2019-06-01T12:21:37.051Z,30.01
2019-06-01T12:24:06.514Z,30.17
2019-06-01T12:26:37.251Z,30.54
2019-06-01T12:29:06.543Z,30.27
2019-06-01T12:31:35.327Z,30.19
2019-06-01T12:34:04.274Z,29.93
2019-06-01T12:36:33.108Z,30.45
2019-06-01T12:39:01.857Z,31.08
2019-06-01T12:41:30.598Z,31.10
2019-06-01T12:44:09.956Z,30.98
2019-06-01T12:46:40.058Z,30.66
2019-06-01T12:49:08.867Z,30.75
2019-06-01T12:51:37.781Z,31.16
2019-06-01T12:54:10.633Z,31.68
2019-06-01T12:56:40.618Z,31.10
2019-06-01T12:59:09.781Z,30.90
2019-06-01T13:01:38.542Z,31.19
2019-06-01T13:04:07.325Z,31.47
2019-06-01T13:06:36.073Z,32.33
2019-06-01T13:09:08.261Z,32.12
2019-06-01T13:11:37.535Z,31.52
2019-06-01T13:14:06.449Z,31.11
2019-06-01T13:16:35.215Z,31.24
2019-06-01T13:19:03.982Z,31.21
2019-06-01T13:21:32.897Z,31.05
2019-06-01T13:24:01.642Z,31.16
2019-06-01T13:26:30.431Z,30.15
2019-06-01T13:28:59.618Z,30.41
2019-06-01T13:31:28.407Z,30.81
2019-06-01T13:33:57.151Z,31.07
2019-06-01T13:36:26.031Z,31.08
2019-06-01T13:38:54.904Z,29.77
2019-06-01T13:41:23.824Z,29.81
2019-06-01T13:43:53.551Z,30.16
2019-06-01T13:46:22.693Z,29.80
2019-06-01T13:48:52.677Z,30.14
2019-06-01T13:51:22.046Z,30.47
2019-06-01T13:53:50.856Z,31.08
2019-06-01T13:56:19.606Z,31.20
2019-06-01T13:58:48.358Z,31.26
2019-06-01T14:01:17.398Z,30.29
2019-06-01T14:03:47.191Z,30.21
2019-06-01T14:06:16.061Z,29.58
2019-06-01T14:08:45.049Z,30.15
2019-06-01T14:11:13.928Z,30.21
2019-06-01T14:13:42.771Z,30.46
2019-06-01T14:16:12.183Z,30.54
2019-06-01T14:18:43.012Z,30.66
2019-06-01T14:21:12.397Z,30.73
2019-06-01T14:23:41.328Z,30.68
2019-06-01T14:26:10.106Z,30.71
2019-06-01T14:28:39.248Z,29.99
2019-06-01T14:31:08.568Z,29.54
2019-06-01T14:33:37.322Z,29.53
2019-06-01T14:36:06.130Z,30.09
2019-06-01T14:38:46.612Z,30.66
2019-06-01T14:41:05.442Z,30.84
2019-06-01T14:43:34.529Z,30.89
2019-06-01T14:46:03.328Z,30.79
2019-06-01T14:48:32.267Z,30.50
2019-06-01T14:51:01.494Z,30.68
2019-06-01T14:53:30.951Z,30.72
2019-06-01T14:56:02.873Z,30.84
2019-06-01T14:58:32.941Z,30.63
2019-06-01T15:01:02.062Z,30.40
2019-06-01T15:03:30.882Z,30.15
2019-06-01T15:05:59.689Z,29.59
2019-06-01T15:08:28.468Z,29.51
2019-06-01T15:10:58.786Z,29.85
2019-06-01T15:13:27.686Z,29.98
2019-06-01T15:15:57.578Z,29.97
2019-06-01T15:18:27.183Z,29.99
2019-06-01T15:20:55.980Z,30.22
2019-06-01T15:23:25.025Z,30.02
2019-06-01T15:25:54.570Z,30.29
2019-06-01T15:28:24.103Z,29.93
2019-06-01T15:30:52.997Z,29.48
2019-06-01T15:33:21.783Z,29.37
2019-06-01T15:35:52.218Z,29.59
2019-06-01T15:38:21.205Z,29.62
2019-06-01T15:40:51.738Z,29.71
2019-06-01T15:43:21.745Z,29.71
2019-06-01T15:45:51.210Z,29.52
2019-06-01T15:48:23.254Z,29.25
2019-06-01T15:50:51.988Z,29.27
2019-06-01T15:53:20.759Z,28.87
2019-06-01T15:55:49.550Z,28.47
2019-06-01T15:58:18.372Z,28.59
2019-06-01T16:00:47.880Z,28.58
2019-06-01T16:03:16.615Z,28.08
2019-06-01T16:05:45.385Z,28.06
2019-06-01T16:08:14.192Z,27.96
2019-06-01T16:10:42.959Z,27.77
2019-06-01T16:13:11.703Z,27.64
2019-06-01T16:15:40.490Z,27.59
2019-06-01T16:18:09.249Z,27.60
2019-06-01T16:20:38.039Z,27.20
2019-06-01T16:23:09.530Z,27.20
2019-06-01T16:25:39.191Z,27.12
2019-06-01T16:28:08.182Z,27.18
2019-06-01T16:30:41.654Z,27.47
2019-06-01T16:33:10.707Z,27.55
2019-06-01T16:35:39.575Z,27.36
2019-06-01T16:38:08.377Z,27.57
2019-06-01T16:40:37.168Z,27.32
2019-06-01T16:43:06.007Z,26.96
2019-06-01T16:45:34.775Z,27.22
2019-06-01T16:48:03.902Z,27.04
2019-06-01T16:50:32.728Z,26.92
2019-06-01T16:53:02.132Z,26.85
2019-06-01T16:55:31.678Z,26.70
2019-06-01T16:58:03.733Z,26.51
2019-06-01T17:00:31.671Z,26.35
2019-06-01T17:03:00.645Z,26.62
2019-06-01T17:05:29.505Z,26.79
2019-06-01T17:07:58.740Z,26.70
2019-06-01T17:10:28.296Z,26.73
2019-06-01T17:12:57.037Z,26.64
2019-06-01T17:15:26.243Z,26.44
2019-06-01T17:17:55.089Z,26.53
2019-06-01T17:20:38.989Z,26.55
2019-06-01T17:23:24.184Z,26.69
2019-06-01T17:25:38.491Z,26.55
2019-06-01T17:28:07.308Z,26.52
2019-06-01T17:30:36.186Z,26.40
2019-06-01T17:33:06.525Z,26.28
2019-06-01T17:35:36.342Z,26.15
2019-06-01T17:38:07.455Z,25.91
2019-06-01T17:40:41.382Z,25.82
2019-06-01T17:43:08.784Z,25.68
2019-06-01T17:45:39.175Z,25.60
2019-06-01T17:48:24.808Z,25.46
2019-06-01T17:50:42.476Z,25.28
2019-06-01T17:53:11.265Z,25.16
2019-06-01T17:55:40.475Z,25.16
2019-06-01T17:58:12.532Z,24.99
2019-06-01T18:00:42.604Z,24.88
2019-06-01T18:03:12.454Z,24.88
2019-06-01T18:05:41.298Z,24.83
2019-06-01T18:08:10.498Z,24.70
2019-06-01T18:10:53.148Z,24.71
2019-06-01T18:13:13.316Z,24.73
2019-06-01T18:15:42.111Z,24.68
2019-06-01T18:18:11.005Z,24.61
2019-06-01T18:20:40.033Z,24.45
2019-06-01T18:23:10.179Z,24.43
2019-06-01T18:25:39.756Z,24.36
2019-06-01T18:28:15.048Z,24.31
2019-06-01T18:30:39.652Z,24.34
2019-06-01T18:33:09.053Z,24.29
2019-06-01T18:35:38.006Z,24.27
2019-06-01T18:38:07.814Z,24.23
2019-06-01T18:40:37.199Z,24.27
2019-06-01T18:43:12.202Z,24.20
2019-06-01T18:45:41.707Z,24.12
2019-06-01T18:48:14.457Z,24.01
2019-06-01T18:50:44.620Z,23.95
2019-06-01T18:53:14.180Z,23.79
2019-06-01T18:55:43.969Z,23.73
2019-06-01T18:58:14.805Z,23.74
2019-06-01T19:00:47.988Z,23.71
2019-06-01T19:03:18.833Z,23.67
2019-06-01T19:05:47.986Z,23.64
2019-06-01T19:08:17.709Z,23.57
2019-06-01T19:10:48.250Z,23.41
2019-06-01T19:13:17.925Z,23.28
2019-06-01T19:15:47.026Z,23.20
2019-06-01T19:18:17.066Z,23.23
2019-06-01T19:20:48.587Z,23.22
2019-06-01T19:23:21.682Z,23.19
2019-06-01T19:25:48.367Z,23.13
2019-06-01T19:28:17.810Z,23.03
2019-06-01T19:30:48.582Z,23.08
2019-06-01T19:33:19.415Z,22.93
2019-06-01T19:35:50.316Z,22.90
2019-06-01T19:38:21.942Z,22.81
2019-06-01T19:40:50.703Z,22.67
2019-06-01T19:43:19.718Z,22.43
2019-06-01T19:45:49.489Z,22.35
2019-06-01T19:48:18.958Z,22.20
2019-06-01T19:50:48.484Z,22.09
2019-06-01T19:53:32.493Z,21.93
2019-06-01T19:55:56.979Z,21.83
2019-06-01T19:58:35.772Z,21.70
2019-06-01T20:01:12.357Z,21.55
2019-06-01T20:03:41.501Z,21.46
2019-06-01T20:06:15.386Z,21.38
2019-06-01T20:08:44.661Z,21.21
2019-06-01T20:11:13.635Z,21.17
2019-06-01T20:13:42.835Z,21.10
2019-06-01T20:16:14.728Z,21.02
2019-06-01T20:18:43.930Z,20.90
2019-06-01T20:21:13.869Z,20.76
2019-06-01T20:23:43.125Z,20.74
2019-06-01T20:26:13.188Z,20.68
2019-06-01T20:28:42.307Z,20.62
2019-06-01T20:31:13.742Z,20.56
2019-06-01T20:33:43.760Z,20.49
2019-06-01T20:36:13.909Z,20.42
2019-06-01T20:38:43.569Z,20.32
2019-06-01T20:41:13.267Z,20.21
2019-06-01T20:43:43.593Z,20.17
2019-06-01T20:46:14.601Z,20.11
2019-06-01T20:48:43.870Z,20.03
2019-06-01T20:51:14.625Z,19.99
2019-06-01T20:53:44.697Z,19.92
2019-06-01T20:56:13.522Z,19.85
2019-06-01T20:58:42.279Z,19.76
2019-06-01T21:01:13.897Z,19.68
2019-06-01T21:03:43.426Z,19.61
2019-06-01T21:06:13.751Z,19.60
2019-06-01T21:08:43.946Z,19.53
2019-06-01T21:11:13.921Z,19.46
2019-06-01T21:13:44.159Z,19.45
2019-06-01T21:16:14.072Z,19.40
2019-06-01T21:18:43.246Z,19.35
2019-06-01T21:21:12.026Z,19.28
2019-06-01T21:23:41.003Z,19.28
2019-06-01T21:26:09.764Z,19.24
2019-06-01T21:28:38.575Z,19.21
2019-06-01T21:31:07.622Z,18.09
2019-06-01T21:33:36.430Z,18.90
2019-06-01T21:36:15.337Z,18.90
2019-06-01T21:38:49.555Z,18.88
2019-06-01T21:41:25.747Z,18.92
2019-06-01T21:44:06.755Z,18.85
2019-06-01T21:46:38.895Z,18.84
2019-06-01T21:49:08.071Z,18.84
2019-06-01T21:51:36.835Z,18.70
2019-06-01T21:54:05.931Z,18.62
2019-06-01T21:56:34.703Z,18.53
2019-06-01T21:59:03.513Z,18.38
2019-06-01T22:01:34.971Z,18.14
2019-06-01T22:04:07.487Z,18.07
2019-06-01T22:06:39.411Z,18.01
2019-06-01T22:09:12.659Z,17.90
2019-06-01T22:11:42.237Z,17.75
2019-06-01T22:14:11.947Z,17.64
2019-06-01T22:16:40.810Z,17.56
2019-06-01T22:19:17.561Z,17.48
2019-06-01T22:21:47.696Z,17.38
2019-06-01T22:24:17.677Z,17.38
2019-06-01T22:26:47.151Z,17.33
2019-06-01T22:29:15.967Z,17.28
2019-06-01T22:31:44.758Z,17.24
2019-06-01T22:34:13.505Z,17.09
2019-06-01T22:36:42.319Z,17.03
2019-06-01T22:39:11.074Z,16.99
2019-06-01T22:41:39.849Z,16.91
2019-06-01T22:44:08.734Z,16.82
2019-06-01T22:46:37.496Z,16.77
2019-06-01T22:49:06.403Z,16.67
2019-06-01T22:51:35.155Z,16.68
2019-06-01T22:54:04.012Z,16.67
2019-06-01T22:56:32.851Z,16.60
2019-06-01T22:59:01.635Z,15.98
2019-06-01T23:01:30.433Z,16.46
2019-06-01T23:03:59.319Z,16.42
2019-06-01T23:06:29.218Z,16.38
2019-06-01T23:08:58.541Z,16.32
2019-06-01T23:11:27.555Z,16.23
2019-06-01T23:13:56.372Z,16.25
2019-06-01T23:16:25.601Z,16.20
2019-06-01T23:18:54.863Z,16.12
2019-06-01T23:21:23.789Z,16.06
2019-06-01T23:23:52.567Z,15.91
2019-06-01T23:26:22.103Z,16.00
2019-06-01T23:28:51.967Z,15.94
2019-06-01T23:31:22.317Z,15.99
2019-06-01T23:33:51.227Z,15.87
2019-06-01T23:36:22.393Z,15.92
2019-06-01T23:38:52.206Z,15.87
2019-06-01T23:41:22.453Z,15.87
2019-06-01T23:44:09.913Z,15.86
2019-06-01T23:46:24.919Z,15.81
2019-06-01T23:48:54.511Z,15.76
2019-06-01T23:51:23.488Z,15.68
2019-06-01T23:53:52.282Z,15.65
2019-06-01T23:56:21.063Z,15.62
2019-06-01T23:58:49.861Z,15.55
